Time;durP1;ratioP1;P1;durP2;ratioP2;P2;SDS_P1;SDS_P2;PMS_P1;PMS_P2;Temp;Humidity;BMP_temperature;BMP_pressure;BME280_temperature;BME280_humidity;BME280_pressure;Samples;Min_cycle;Max_cycle;Signal;HPM_P1;HPM_P2
2022/04/28 00:02:01;;;;;;;5.80;2.92;;;;;;;;;;4205750;34;20129;-63
2022/04/28 00:32:54;;;;;;;3.60;2.70;;;;;;;;;;4645717;28;20324;-59
2022/04/28 00:35:20;;;;;;;7.07;2.45;;;;;;;;;;4205737;34;20101;-58
2022/04/28 00:37:46;;;;;;;3.55;2.47;;;;;;;;;;4204260;34;20120;-58
2022/04/28 00:40:12;;;;;;;4.75;2.67;;;;;;;;;;4179073;34;20226;-60
2022/04/28 00:42:38;;;;;;;4.22;2.92;;;;;;;;;;4193590;34;20121;-61
2022/04/28 00:45:04;;;;;;;4.87;2.70;;;;;;;;;;4200758;34;20690;-60
2022/04/28 00:53:01;;;;;;;6.18;3.12;;;;;;;;;;4205413;34;20125;-62
2022/04/28 00:55:28;;;;;;;3.05;2.62;;;;;;;;;;4192649;34;20106;-62
2022/04/28 00:57:54;;;;;;;7.25;2.95;;;;;;;;;;4192511;34;20132;-63
2022/04/28 01:00:20;;;;;;;3.50;2.75;;;;;;;;;;4181832;34;20097;-62
2022/04/28 01:02:46;;;;;;;3.58;2.67;;;;;;;;;;4191510;34;20118;-62
2022/04/28 01:05:12;;;;;;;5.12;2.78;;;;;;;;;;4167411;34;20628;-62
2022/04/28 01:07:38;;;;;;;4.10;2.60;;;;;;;;;;4191744;34;20122;-62
2022/04/28 01:10:04;;;;;;;4.53;2.80;;;;;;;;;;4178694;34;20214;-61
2022/04/28 01:12:30;;;;;;;4.85;2.75;;;;;;;;;;4191301;34;20201;-59
2022/04/28 01:14:56;;;;;;;2.70;2.45;;;;;;;;;;4191470;34;20127;-59
2022/04/28 01:17:22;;;;;;;3.37;3.08;;;;;;;;;;4188900;34;20565;-59
2022/04/28 01:19:48;;;;;;;4.85;2.60;;;;;;;;;;4205245;34;20125;-59
2022/04/28 01:22:14;;;;;;;3.90;2.53;;;;;;;;;;4205103;34;20178;-59
2022/04/28 01:24:40;;;;;;;4.32;2.72;;;;;;;;;;4205169;34;20102;-59
2022/04/28 01:27:06;;;;;;;4.25;2.53;;;;;;;;;;4205385;34;20102;-60
2022/04/28 01:29:33;;;;;;;2.97;2.72;;;;;;;;;;4205220;34;20109;-59
2022/04/28 01:32:00;;;;;;;3.83;2.90;;;;;;;;;;4205051;34;20136;-59
2022/04/28 01:34:26;;;;;;;3.42;2.90;;;;;;;;;;4192101;34;20126;-59
2022/04/28 01:36:52;;;;;;;3.10;2.58;;;;;;;;;;4205182;34;20109;-59
2022/04/28 01:39:17;;;;;;;3.90;2.42;;;;;;;;;;4205100;34;20101;-59
2022/04/28 01:41:43;;;;;;;2.47;2.28;;;;;;;;;;4205285;34;20446;-60
2022/04/28 01:44:10;;;;;;;2.60;2.40;;;;;;;;;;4204828;34;20101;-58
2022/04/28 01:46:36;;;;;;;3.15;2.50;;;;;;;;;;4204996;34;20098;-59
2022/04/28 01:49:02;;;;;;;3.45;2.90;;;;;;;;;;4204861;34;20102;-59
2022/04/28 01:56:57;;;;;;;3.10;2.58;;;;;;;;;;4182091;34;20739;-63
2022/04/28 01:59:23;;;;;;;3.37;2.30;;;;;;;;;;4205010;34;20132;-63
2022/04/28 02:01:49;;;;;;;4.35;2.58;;;;;;;;;;4204721;34;20545;-63
2022/04/28 02:04:15;;;;;;;3.67;2.25;;;;;;;;;;4204876;34;20098;-63
2022/04/28 02:06:43;;;;;;;2.53;2.33;;;;;;;;;;4204899;34;20233;-63
2022/04/28 02:09:09;;;;;;;3.42;2.58;;;;;;;;;;4199112;34;20459;-64
2022/04/28 02:11:35;;;;;;;2.58;2.33;;;;;;;;;;4192031;34;20518;-63
2022/04/28 02:14:01;;;;;;;6.35;2.75;;;;;;;;;;4204807;34;20124;-62
2022/04/28 02:16:27;;;;;;;2.70;2.40;;;;;;;;;;4192102;34;20118;-61
2022/04/28 02:18:53;;;;;;;2.45;2.25;;;;;;;;;;4191858;34;20610;-63
2022/04/28 02:21:19;;;;;;;2.95;2.20;;;;;;;;;;4204795;34;20133;-63
2022/04/28 02:23:45;;;;;;;2.65;2.40;;;;;;;;;;4204658;34;20129;-63
2022/04/28 02:26:11;;;;;;;3.65;2.60;;;;;;;;;;4204943;34;20441;-62
2022/04/28 02:28:37;;;;;;;2.60;2.22;;;;;;;;;;4204801;34;20113;-63
2022/04/28 02:31:03;;;;;;;3.47;2.50;;;;;;;;;;4204936;34;20122;-62
2022/04/28 02:33:29;;;;;;;2.45;2.25;;;;;;;;;;4204573;34;20129;-62
2022/04/28 02:35:55;;;;;;;10.32;2.67;;;;;;;;;;4204742;34;20173;-63
2022/04/28 02:38:21;;;;;;;3.70;2.25;;;;;;;;;;4204521;34;20130;-63
2022/04/28 02:40:46;;;;;;;2.83;2.53;;;;;;;;;;4192044;34;20110;-63
2022/04/28 02:43:12;;;;;;;3.05;2.50;;;;;;;;;;4204931;34;20105;-63
2022/04/28 02:45:38;;;;;;;3.55;2.75;;;;;;;;;;4204570;34;20105;-63
2022/04/28 02:48:05;;;;;;;4.05;2.80;;;;;;;;;;4204518;34;20143;-63
2022/04/28 02:50:31;;;;;;;3.17;2.10;;;;;;;;;;4204704;34;20109;-62
2022/04/28 02:52:57;;;;;;;2.58;2.30;;;;;;;;;;4204689;34;20126;-63
2022/04/28 02:55:23;;;;;;;4.95;2.17;;;;;;;;;;4191610;34;20097;-63
2022/04/28 02:57:48;;;;;;;4.30;2.20;;;;;;;;;;4204352;34;20102;-63
2022/04/28 03:00:15;;;;;;;2.87;2.62;;;;;;;;;;4204389;34;20138;-63
2022/04/28 03:02:41;;;;;;;3.40;2.20;;;;;;;;;;4204506;34;20205;-63
2022/04/28 03:05:07;;;;;;;4.65;2.70;;;;;;;;;;4203339;34;20113;-63
2022/04/28 03:10:49;;;;;;;3.15;2.30;;;;;;;;;;4193378;34;20217;-63
2022/04/28 03:13:22;;;;;;;2.60;2.40;;;;;;;;;;4191140;34;20118;-63
2022/04/28 03:15:48;;;;;;;3.92;2.80;;;;;;;;;;4204179;34;20193;-63
2022/04/28 03:18:17;;;;;;;3.67;2.55;;;;;;;;;;4204264;34;20579;-63
2022/04/28 03:20:43;;;;;;;4.65;2.62;;;;;;;;;;4204087;34;20519;-63
2022/04/28 03:23:11;;;;;;;2.87;2.58;;;;;;;;;;4204176;34;20199;-62
2022/04/28 03:25:38;;;;;;;6.72;3.05;;;;;;;;;;4204116;34;20116;-62
2022/04/28 03:28:05;;;;;;;3.53;3.05;;;;;;;;;;4204123;34;20149;-64
2022/04/28 03:30:31;;;;;;;3.00;2.45;;;;;;;;;;4204081;34;20109;-64
2022/04/28 03:32:57;;;;;;;2.58;2.33;;;;;;;;;;4203848;34;20110;-63
2022/04/28 03:35:23;;;;;;;6.62;2.78;;;;;;;;;;4204063;34;20123;-64
2022/04/28 03:37:49;;;;;;;2.90;2.45;;;;;;;;;;4203834;34;20141;-64
2022/04/28 03:40:16;;;;;;;3.30;2.50;;;;;;;;;;4191007;34;20102;-62
2022/04/28 03:42:43;;;;;;;3.22;2.50;;;;;;;;;;4179922;34;20125;-63
2022/04/28 03:45:10;;;;;;;4.85;3.35;;;;;;;;;;4191107;34;20106;-63
2022/04/28 03:47:36;;;;;;;2.83;2.22;;;;;;;;;;4190939;34;20117;-63
2022/04/28 03:50:04;;;;;;;2.67;2.45;;;;;;;;;;4190973;34;20120;-63
2022/04/28 03:52:31;;;;;;;3.45;2.50;;;;;;;;;;4203782;34;20097;-62
2022/04/28 03:54:57;;;;;;;2.65;2.40;;;;;;;;;;4190836;34;20200;-62
2022/04/28 03:57:23;;;;;;;4.40;2.60;;;;;;;;;;4203633;34;20113;-62
2022/04/28 03:59:49;;;;;;;3.28;2.97;;;;;;;;;;4203676;34;20106;-61
2022/04/28 04:02:15;;;;;;;3.85;2.78;;;;;;;;;;4203602;34;20521;-61
2022/04/28 04:04:41;;;;;;;5.95;2.80;;;;;;;;;;4203573;34;20128;-61
2022/04/28 04:07:07;;;;;;;4.87;3.03;;;;;;;;;;4203558;34;20118;-61
2022/04/28 04:09:33;;;;;;;4.18;2.60;;;;;;;;;;4203896;34;20102;-61
2022/04/28 04:11:59;;;;;;;2.78;2.50;;;;;;;;;;4203317;34;20113;-62
2022/04/28 04:14:25;;;;;;;3.60;2.58;;;;;;;;;;4203603;34;20181;-61
2022/04/28 04:16:51;;;;;;;2.58;2.37;;;;;;;;;;4192405;34;20202;-64
2022/04/28 04:19:17;;;;;;;1.87;1.77;;;;;;;;;;4205827;34;20094;-66
2022/04/28 04:21:43;;;;;;;5.57;2.67;;;;;;;;;;4205869;34;20113;-65
2022/04/28 04:24:09;;;;;;;2.67;1.98;;;;;;;;;;4205680;34;20121;-68
2022/04/28 04:26:35;;;;;;;4.15;2.47;;;;;;;;;;4205679;34;20118;-66
2022/04/28 04:29:01;;;;;;;3.92;2.70;;;;;;;;;;4205699;34;20119;-64
2022/04/28 04:34:11;;;;;;;3.85;2.17;;;;;;;;;;4200003;34;20113;-65
2022/04/28 04:36:37;;;;;;;4.53;2.67;;;;;;;;;;4205437;34;20526;-64
2022/04/28 04:39:03;;;;;;;6.70;2.37;;;;;;;;;;4205469;34;20125;-66
2022/04/28 04:41:29;;;;;;;4.45;2.30;;;;;;;;;;4205892;34;20102;-69
2022/04/28 04:43:55;;;;;;;2.72;2.12;;;;;;;;;;4205483;34;20449;-64
2022/04/28 04:46:21;;;;;;;6.15;2.20;;;;;;;;;;4205615;34;20140;-65
2022/04/28 04:48:47;;;;;;;4.62;2.30;;;;;;;;;;4205447;34;20094;-63
2022/04/28 04:51:13;;;;;;;3.15;2.10;;;;;;;;;;4205576;34;20105;-66
2022/04/28 04:53:39;;;;;;;3.85;2.30;;;;;;;;;;4205405;34;20133;-66
2022/04/28 04:56:05;;;;;;;4.50;2.20;;;;;;;;;;4205362;34;20129;-65
2022/04/28 04:58:31;;;;;;;3.87;2.33;;;;;;;;;;4205485;34;20205;-65
2022/04/28 05:00:57;;;;;;;2.62;2.00;;;;;;;;;;4205610;34;20149;-65
2022/04/28 05:03:23;;;;;;;3.15;2.20;;;;;;;;;;4192417;34;20457;-65
2022/04/28 05:05:49;;;;;;;2.78;2.20;;;;;;;;;;4192447;34;20180;-65
2022/04/28 05:08:16;;;;;;;2.58;2.33;;;;;;;;;;4205333;34;20125;-65
2022/04/28 05:10:42;;;;;;;2.28;2.08;;;;;;;;;;4205459;34;20185;-65
2022/04/28 05:13:08;;;;;;;1.80;1.70;;;;;;;;;;4205474;34;20133;-64
2022/04/28 05:15:34;;;;;;;2.00;1.90;;;;;;;;;;4205324;34;20110;-66
2022/04/28 05:18:00;;;;;;;3.97;1.98;;;;;;;;;;4205038;34;20704;-66
2022/04/28 05:20:26;;;;;;;2.22;2.03;;;;;;;;;;4205425;34;20214;-64
2022/04/28 05:22:52;;;;;;;2.20;2.00;;;;;;;;;;4205282;34;20124;-64
2022/04/28 05:25:18;;;;;;;2.22;2.03;;;;;;;;;;4205246;34;20125;-64
2022/04/28 05:27:44;;;;;;;1.92;1.80;;;;;;;;;;4204181;34;20212;-63
2022/04/28 05:30:10;;;;;;;3.03;1.85;;;;;;;;;;4205318;34;20110;-64
2022/04/28 05:32:36;;;;;;;2.17;1.83;;;;;;;;;;4204951;34;20612;-63
2022/04/28 05:35:02;;;;;;;3.92;1.80;;;;;;;;;;4205077;34;20167;-63
2022/04/28 05:37:28;;;;;;;2.30;1.95;;;;;;;;;;4204917;34;20229;-66
2022/04/28 05:39:54;;;;;;;4.37;1.83;;;;;;;;;;4192124;34;20629;-65
2022/04/28 05:42:20;;;;;;;2.28;2.08;;;;;;;;;;4192029;34;20117;-64
2022/04/28 05:47:31;;;;;;;4.53;2.10;;;;;;;;;;4204933;34;20121;-65
2022/04/28 05:49:57;;;;;;;2.53;1.80;;;;;;;;;;4192392;34;20110;-66
2022/04/28 05:52:23;;;;;;;2.58;2.08;;;;;;;;;;4205099;34;20133;-65
2022/04/28 05:54:49;;;;;;;2.35;2.00;;;;;;;;;;4192087;34;20153;-64
2022/04/28 05:57:15;;;;;;;3.05;2.30;;;;;;;;;;4204751;34;20109;-65
2022/04/28 05:59:41;;;;;;;4.20;2.30;;;;;;;;;;4192062;34;20118;-65
2022/04/28 06:02:07;;;;;;;2.60;2.30;;;;;;;;;;4191844;34;20641;-65
2022/04/28 06:04:33;;;;;;;4.53;2.50;;;;;;;;;;4204931;34;20086;-64
2022/04/28 06:06:59;;;;;;;2.25;2.05;;;;;;;;;;4204824;34;20201;-65
2022/04/28 06:09:25;;;;;;;2.60;2.03;;;;;;;;;;4204783;34;20129;-65
2022/04/28 06:11:51;;;;;;;2.20;2.00;;;;;;;;;;4204597;34;20110;-65
2022/04/28 06:14:17;;;;;;;2.20;2.00;;;;;;;;;;4204830;34;20094;-65
2022/04/28 06:16:43;;;;;;;2.60;2.40;;;;;;;;;;4204878;34;20567;-65
2022/04/28 06:19:09;;;;;;;2.17;1.87;;;;;;;;;;4191982;34;20124;-66
2022/04/28 06:21:35;;;;;;;3.75;2.40;;;;;;;;;;4204651;34;20462;-64
2022/04/28 06:24:01;;;;;;;3.42;2.20;;;;;;;;;;4204691;34;20106;-63
2022/04/28 06:26:27;;;;;;;4.85;2.22;;;;;;;;;;4204754;34;20205;-65
2022/04/28 06:28:53;;;;;;;2.90;2.33;;;;;;;;;;4204496;34;20209;-65
2022/04/28 06:31:19;;;;;;;2.92;2.30;;;;;;;;;;4204578;34;20109;-65
2022/04/28 06:33:45;;;;;;;2.45;2.10;;;;;;;;;;4204815;34;20220;-65
2022/04/28 06:36:12;;;;;;;2.17;1.98;;;;;;;;;;4191815;34;20193;-65
2022/04/28 06:38:39;;;;;;;4.75;2.20;;;;;;;;;;4204388;34;20506;-65
2022/04/28 06:41:05;;;;;;;2.10;1.90;;;;;;;;;;4204547;34;20100;-64
2022/04/28 06:43:32;;;;;;;3.10;2.08;;;;;;;;;;4204327;34;20090;-65
2022/04/28 06:46:13;;;;;;;2.03;1.92;;;;;;;;;;4204558;34;20221;-64
2022/04/28 06:48:39;;;;;;;3.40;2.10;;;;;;;;;;4204600;34;20200;-64
2022/04/28 06:51:05;;;;;;;3.90;1.83;;;;;;;;;;4191707;34;20132;-64
2022/04/28 06:53:31;;;;;;;1.98;1.80;;;;;;;;;;4191768;34;20157;-65
2022/04/28 06:55:57;;;;;;;2.20;1.90;;;;;;;;;;4191426;34;20149;-65
2022/04/28 06:58:23;;;;;;;4.72;2.25;;;;;;;;;;4204676;34;20553;-64
2022/04/28 07:00:50;;;;;;;1.85;1.67;;;;;;;;;;4189752;34;20126;-64
2022/04/28 07:03:16;;;;;;;3.70;2.22;;;;;;;;;;4176827;34;20165;-64
2022/04/28 07:05:42;;;;;;;4.80;2.10;;;;;;;;;;4176956;34;20113;-66
2022/04/28 07:08:08;;;;;;;2.95;2.20;;;;;;;;;;4152753;34;20118;-66
2022/04/28 07:10:37;;;;;;;3.20;2.33;;;;;;;;;;4176954;34;20483;-63
2022/04/28 07:13:03;;;;;;;4.55;2.08;;;;;;;;;;4152902;34;20106;-64
2022/04/28 07:15:29;;;;;;;2.50;2.00;;;;;;;;;;4164250;34;20098;-64
2022/04/28 07:17:55;;;;;;;2.17;1.98;;;;;;;;;;4163785;34;20498;-64
2022/04/28 07:20:21;;;;;;;2.00;1.90;;;;;;;;;;4176592;34;20197;-63
2022/04/28 07:22:47;;;;;;;2.30;2.10;;;;;;;;;;4176737;34;20179;-65
2022/04/28 07:25:13;;;;;;;3.25;2.00;;;;;;;;;;4176627;34;20098;-64
2022/04/28 07:27:39;;;;;;;2.47;2.28;;;;;;;;;;4176336;34;20487;-64
2022/04/28 07:30:06;;;;;;;2.37;2.17;;;;;;;;;;4176505;34;20138;-64
2022/04/28 07:32:35;;;;;;;2.78;1.95;;;;;;;;;;4176389;34;20106;-62
2022/04/28 07:35:01;;;;;;;2.67;2.30;;;;;;;;;;4163817;34;20307;-65
2022/04/28 07:37:27;;;;;;;4.18;2.20;;;;;;;;;;4176602;34;20205;-61
2022/04/28 07:39:53;;;;;;;3.80;2.00;;;;;;;;;;4176462;34;20114;-63
2022/04/28 07:42:19;;;;;;;2.17;2.00;;;;;;;;;;4163431;34;20110;-63
2022/04/28 07:44:45;;;;;;;3.10;2.10;;;;;;;;;;4196599;34;20135;-62
2022/04/28 07:47:11;;;;;;;3.15;2.10;;;;;;;;;;4203805;34;20094;-63
2022/04/28 07:49:37;;;;;;;2.28;2.08;;;;;;;;;;4188368;34;20170;-63
2022/04/28 07:52:03;;;;;;;3.20;2.58;;;;;;;;;;4177558;34;20142;-62
2022/04/28 07:54:29;;;;;;;3.35;2.05;;;;;;;;;;4178524;34;20141;-64
2022/04/28 07:56:55;;;;;;;2.55;2.35;;;;;;;;;;4165341;34;20535;-63
2022/04/28 07:59:21;;;;;;;3.47;2.15;;;;;;;;;;4178670;34;20122;-64
2022/04/28 08:01:47;;;;;;;2.75;2.25;;;;;;;;;;4178158;34;20118;-63
2022/04/28 08:04:13;;;;;;;2.60;2.35;;;;;;;;;;4178612;34;20121;-62
2022/04/28 08:06:39;;;;;;;2.50;2.30;;;;;;;;;;4178360;34;20133;-62
2022/04/28 08:09:05;;;;;;;2.60;2.30;;;;;;;;;;4178421;34;20110;-62
2022/04/28 08:11:31;;;;;;;1.65;1.55;;;;;;;;;;4178603;34;20271;-61
2022/04/28 08:13:57;;;;;;;1.60;1.50;;;;;;;;;;4178372;34;20206;-64
2022/04/28 08:16:23;;;;;;;3.67;2.30;;;;;;;;;;4178186;34;20130;-62
2022/04/28 08:18:49;;;;;;;3.10;2.65;;;;;;;;;;4178259;34;20476;-64
2022/04/28 08:21:15;;;;;;;5.55;2.50;;;;;;;;;;4178258;34;20090;-61
2022/04/28 08:23:41;;;;;;;2.72;2.33;;;;;;;;;;4178298;34;20446;-64
2022/04/28 08:26:07;;;;;;;2.50;2.20;;;;;;;;;;4178327;34;20106;-63
2022/04/28 08:28:33;;;;;;;4.90;2.55;;;;;;;;;;4178036;34;20459;-61
2022/04/28 08:30:59;;;;;;;3.85;2.20;;;;;;;;;;4178130;34;20122;-63
2022/04/28 08:33:25;;;;;;;2.40;2.00;;;;;;;;;;4177989;34;20114;-62
2022/04/28 08:35:52;;;;;;;2.40;2.20;;;;;;;;;;4178095;34;20210;-62
2022/04/28 08:38:18;;;;;;;5.12;2.47;;;;;;;;;;4165269;34;20531;-62
2022/04/28 08:40:46;;;;;;;2.22;2.03;;;;;;;;;;4177991;34;20563;-63
2022/04/28 08:43:15;;;;;;;3.28;2.10;;;;;;;;;;4180488;34;20482;-62
2022/04/28 08:46:50;;;;;;;4.20;1.95;;;;;;;;;;4192717;34;20105;-62
2022/04/28 08:48:31;;;;;;;2.15;1.90;;;;;;;;;;4194739;34;20223;-62
2022/04/28 08:50:59;;;;;;;3.75;2.10;;;;;;;;;;4205786;34;20122;-62
2022/04/28 08:53:25;;;;;;;1.90;1.80;;;;;;;;;;4192999;34;20272;-64
2022/04/28 08:55:51;;;;;;;2.85;2.17;;;;;;;;;;4205495;34;20126;-62
2022/04/28 08:58:17;;;;;;;2.67;2.10;;;;;;;;;;4205192;34;20451;-62
2022/04/28 09:00:43;;;;;;;3.10;2.20;;;;;;;;;;4205487;34;20205;-62
2022/04/28 09:03:09;;;;;;;3.17;1.58;;;;;;;;;;4205293;34;20121;-62
2022/04/28 09:05:35;;;;;;;2.20;1.95;;;;;;;;;;4205321;34;20522;-62
2022/04/28 09:08:01;;;;;;;2.40;1.73;;;;;;;;;;4205155;34;20470;-62
2022/04/28 09:10:32;;;;;;;2.97;2.00;;;;;;;;;;4205013;34;20127;-61
2022/04/28 09:15:54;;;;;;;3.25;2.05;;;;;;;;;;4200854;34;20121;-62
2022/04/28 09:18:21;;;;;;;2.03;1.87;;;;;;;;;;4200752;34;20125;-61
2022/04/28 09:20:48;;;;;;;2.03;1.70;;;;;;;;;;4201833;34;20502;-62
2022/04/28 09:23:15;;;;;;;2.70;2.00;;;;;;;;;;4192298;34;20137;-62
2022/04/28 09:25:42;;;;;;;2.65;1.95;;;;;;;;;;4205159;34;20101;-64
2022/04/28 09:28:09;;;;;;;2.50;1.73;;;;;;;;;;4205162;34;20109;-60
2022/04/28 09:30:50;;;;;;;2.12;1.90;;;;;;;;;;4192591;34;20216;-62
2022/04/28 09:33:23;;;;;;;4.50;2.17;;;;;;;;;;4181248;34;20204;-63
2022/04/28 09:35:52;;;;;;;2.62;2.12;;;;;;;;;;4205183;34;20098;-63
2022/04/28 09:38:19;;;;;;;3.62;2.00;;;;;;;;;;4205147;34;20103;-60
2022/04/28 09:43:32;;;;;;;2.20;2.00;;;;;;;;;;4205017;34;20117;-59
2022/04/28 09:45:59;;;;;;;2.28;2.05;;;;;;;;;;4192385;34;20113;-64
2022/04/28 09:48:30;;;;;;;2.92;2.30;;;;;;;;;;4204814;34;20216;-60
2022/04/28 09:51:00;;;;;;;3.35;2.12;;;;;;;;;;4192227;34;20098;-61
2022/04/28 09:53:29;;;;;;;2.33;2.00;;;;;;;;;;4192079;34;20109;-61
2022/04/28 09:55:57;;;;;;;2.15;1.77;;;;;;;;;;4205073;34;20106;-61
2022/04/28 09:58:23;;;;;;;3.30;1.80;;;;;;;;;;4180619;34;20125;-60
2022/04/28 10:00:49;;;;;;;7.28;1.83;;;;;;;;;;4204677;34;20137;-63
2022/04/28 10:03:15;;;;;;;3.58;1.98;;;;;;;;;;4188721;34;20213;-64
2022/04/28 10:05:41;;;;;;;3.70;1.98;;;;;;;;;;4200961;34;20109;-62
2022/04/28 10:08:08;;;;;;;2.53;1.90;;;;;;;;;;4187550;34;20225;-61
2022/04/28 10:10:35;;;;;;;1.90;1.70;;;;;;;;;;4176371;34;20118;-61
2022/04/28 10:13:01;;;;;;;3.20;2.58;;;;;;;;;;4186741;34;20122;-61
2022/04/28 10:15:28;;;;;;;2.03;1.85;;;;;;;;;;4202044;34;20114;-62
2022/04/28 10:18:00;;;;;;;2.72;2.10;;;;;;;;;;4189396;34;20128;-61
2022/04/28 10:20:30;;;;;;;2.35;2.03;;;;;;;;;;4191003;34;20098;-63
2022/04/28 10:23:00;;;;;;;2.87;2.25;;;;;;;;;;4191586;34;20237;-61
2022/04/28 10:33:50;;;;;;;3.10;2.35;;;;;;;;;;4204433;34;20089;-62
2022/04/28 10:36:18;;;;;;;2.08;1.87;;;;;;;;;;4191537;34;20232;-61
2022/04/28 10:39:07;;;;;;;2.22;1.90;;;;;;;;;;4204730;34;20136;-59
2022/04/28 10:41:34;;;;;;;3.97;2.30;;;;;;;;;;4204536;34;20106;-61
2022/04/28 10:44:00;;;;;;;1.60;1.50;;;;;;;;;;4191593;34;20122;-61
2022/04/28 10:46:27;;;;;;;2.20;2.00;;;;;;;;;;4191582;34;20116;-61
2022/04/28 10:48:59;;;;;;;4.30;2.05;;;;;;;;;;4204208;34;20505;-62
2022/04/28 10:51:27;;;;;;;2.30;2.10;;;;;;;;;;4204473;34;20201;-61
2022/04/28 10:54:11;;;;;;;4.25;2.15;;;;;;;;;;4204297;34;20108;-62
2022/04/28 10:56:39;;;;;;;1.75;1.65;;;;;;;;;;4204639;34;20106;-62
2022/04/28 10:59:32;;;;;;;1.80;1.70;;;;;;;;;;4204449;34;20136;-61
2022/04/28 11:02:15;;;;;;;4.40;2.00;;;;;;;;;;4204245;34;20209;-63
2022/04/28 11:04:52;;;;;;;3.87;2.00;;;;;;;;;;4204229;34;20539;-63
2022/04/28 11:07:24;;;;;;;2.35;2.15;;;;;;;;;;4204193;34;20114;-62
2022/04/28 11:09:55;;;;;;;3.05;2.50;;;;;;;;;;4204187;34;20144;-62
2022/04/28 11:12:23;;;;;;;4.47;2.10;;;;;;;;;;4191439;34;20136;-62
2022/04/28 11:14:50;;;;;;;2.30;2.10;;;;;;;;;;4191431;34;20125;-62
2022/04/28 11:17:17;;;;;;;2.30;2.10;;;;;;;;;;4203960;34;20533;-61
2022/04/28 11:19:44;;;;;;;2.20;2.00;;;;;;;;;;4204164;34;20186;-61
2022/04/28 11:22:14;;;;;;;3.53;2.28;;;;;;;;;;4204005;34;20224;-61
2022/04/28 11:24:44;;;;;;;4.30;2.42;;;;;;;;;;4204115;34;20129;-63
2022/04/28 11:27:20;;;;;;;3.70;2.65;;;;;;;;;;4206064;34;20126;-62
2022/04/28 11:29:49;;;;;;;1.80;1.70;;;;;;;;;;4206418;34;20113;-62
2022/04/28 11:32:16;;;;;;;3.28;2.53;;;;;;;;;;4201024;34;20118;-61
2022/04/28 11:34:44;;;;;;;3.10;1.77;;;;;;;;;;4190246;34;20462;-58
2022/04/28 11:37:17;;;;;;;2.17;1.98;;;;;;;;;;4170610;34;20224;-61
2022/04/28 11:39:48;;;;;;;2.42;2.22;;;;;;;;;;4192065;34;20523;-58
2022/04/28 11:42:22;;;;;;;1.90;1.75;;;;;;;;;;4191947;34;20078;-58
2022/04/28 11:44:53;;;;;;;3.10;2.10;;;;;;;;;;4191953;34;20132;-59
2022/04/28 11:47:20;;;;;;;2.25;1.67;;;;;;;;;;4189823;34;20132;-58
2022/04/28 11:49:49;;;;;;;6.82;2.20;;;;;;;;;;4178836;34;20098;-59
2022/04/28 11:52:29;;;;;;;2.12;1.83;;;;;;;;;;4186741;34;20526;-58
2022/04/28 11:55:00;;;;;;;2.62;2.10;;;;;;;;;;4191794;34;20109;-70
2022/04/28 11:57:27;;;;;;;2.40;2.00;;;;;;;;;;4156873;34;20221;-68
2022/04/28 11:59:54;;;;;;;6.28;2.37;;;;;;;;;;4167391;34;20126;-64
2022/04/28 12:02:34;;;;;;;2.30;2.08;;;;;;;;;;4179498;34;20470;-65
2022/04/28 12:05:22;;;;;;;2.12;1.92;;;;;;;;;;4192105;34;20439;-66
2022/04/28 12:07:52;;;;;;;2.37;1.87;;;;;;;;;;4191923;34;20507;-65
2022/04/28 12:16:13;;;;;;;2.30;1.92;;;;;;;;;;4169870;34;20110;-65
2022/04/28 12:21:37;;;;;;;3.87;1.85;;;;;;;;;;4187931;34;20094;-63
2022/04/28 12:24:11;;;;;;;2.45;2.20;;;;;;;;;;4179442;34;20118;-63
2022/04/28 12:26:41;;;;;;;2.40;2.10;;;;;;;;;;4179208;34;20229;-64
2022/04/28 12:29:14;;;;;;;3.03;2.40;;;;;;;;;;4191738;34;20129;-65
2022/04/28 12:31:41;;;;;;;2.72;2.30;;;;;;;;;;4179399;34;20558;-65
2022/04/28 12:34:20;;;;;;;4.28;1.90;;;;;;;;;;4191609;34;20133;-64
2022/04/28 12:36:54;;;;;;;4.03;2.15;;;;;;;;;;4178887;34;20435;-65
2022/04/28 12:39:21;;;;;;;4.12;2.20;;;;;;;;;;4178854;34;20133;-65
2022/04/28 12:41:48;;;;;;;4.90;2.62;;;;;;;;;;4177825;34;20451;-65
2022/04/28 12:44:14;;;;;;;3.35;2.37;;;;;;;;;;4183813;34;20113;-65
2022/04/28 12:46:44;;;;;;;3.70;2.25;;;;;;;;;;4203455;34;20462;-65
2022/04/28 12:49:12;;;;;;;2.95;2.22;;;;;;;;;;4190414;34;20121;-65
2022/04/28 12:51:47;;;;;;;5.90;3.35;;;;;;;;;;4203806;34;20112;-66
2022/04/28 12:54:33;;;;;;;;;;;;;;;;;;4204394;34;20105;-68
2022/04/28 12:57:04;;;;;;;3.40;2.37;;;;;;;;;;4190971;34;19992;-66
2022/04/28 12:59:36;;;;;;;2.75;2.12;;;;;;;;;;4192567;34;20086;-65
2022/04/28 13:02:03;;;;;;;1.65;1.55;;;;;;;;;;4192513;34;20569;-65
2022/04/28 13:04:29;;;;;;;2.87;1.90;;;;;;;;;;4205530;34;20130;-65
2022/04/28 13:06:55;;;;;;;3.08;2.10;;;;;;;;;;4205276;34;20470;-64
2022/04/28 13:09:22;;;;;;;4.20;2.37;;;;;;;;;;4167203;34;20206;-63
2022/04/28 13:11:49;;;;;;;2.33;2.12;;;;;;;;;;4191271;34;20083;-65
2022/04/28 13:14:18;;;;;;;4.65;2.05;;;;;;;;;;4178263;34;20142;-63
2022/04/28 13:16:46;;;;;;;6.15;2.10;;;;;;;;;;4191310;34;20176;-63
2022/04/28 13:19:12;;;;;;;2.17;1.98;;;;;;;;;;4178778;34;20553;-64
2022/04/28 13:21:39;;;;;;;1.92;1.77;;;;;;;;;;4167186;34;20145;-65
2022/04/28 13:24:07;;;;;;;2.10;1.85;;;;;;;;;;4191157;34;20537;-63
2022/04/28 13:26:33;;;;;;;3.47;1.92;;;;;;;;;;4191413;34;20114;-63
2022/04/28 13:29:00;;;;;;;2.60;1.70;;;;;;;;;;4191182;34;20219;-64
2022/04/28 13:31:26;;;;;;;5.20;2.20;;;;;;;;;;4191432;34;20197;-64
2022/04/28 13:33:53;;;;;;;3.55;2.08;;;;;;;;;;4191161;34;20098;-64
2022/04/28 13:36:19;;;;;;;2.35;1.87;;;;;;;;;;4191362;34;20136;-64
2022/04/28 13:38:45;;;;;;;6.35;1.83;;;;;;;;;;4191183;34;20486;-63
2022/04/28 13:41:13;;;;;;;4.95;2.00;;;;;;;;;;4191293;34;20122;-63
2022/04/28 13:43:40;;;;;;;3.55;2.20;;;;;;;;;;4195045;34;20228;-63
2022/04/28 13:46:08;;;;;;;3.03;2.70;;;;;;;;;;4192305;34;20217;-62
2022/04/28 13:48:35;;;;;;;1.92;1.70;;;;;;;;;;4204280;34;20184;-63
2022/04/28 13:51:02;;;;;;;2.30;2.10;;;;;;;;;;4192068;34;20113;-63
2022/04/28 13:53:29;;;;;;;1.80;1.70;;;;;;;;;;4191823;34;20123;-62
2022/04/28 13:55:56;;;;;;;3.53;1.75;;;;;;;;;;4204965;34;20109;-62
2022/04/28 13:58:23;;;;;;;4.35;2.00;;;;;;;;;;4204977;34;20514;-62
2022/04/28 14:00:51;;;;;;;4.15;2.05;;;;;;;;;;4202125;34;20224;-65
2022/04/28 14:03:20;;;;;;;2.42;1.95;;;;;;;;;;4178574;34;20209;-62
2022/04/28 14:05:51;;;;;;;4.22;2.08;;;;;;;;;;4178175;34;20193;-63
2022/04/28 14:08:17;;;;;;;3.83;2.20;;;;;;;;;;4177871;34;20134;-63
2022/04/28 14:10:44;;;;;;;5.05;2.08;;;;;;;;;;4190735;34;20118;-63
2022/04/28 14:13:10;;;;;;;4.07;2.28;;;;;;;;;;4190850;34;20122;-63
2022/04/28 14:15:36;;;;;;;3.75;2.08;;;;;;;;;;4178241;34;20140;-63
2022/04/28 14:18:02;;;;;;;1.95;1.83;;;;;;;;;;4190776;34;20467;-63
2022/04/28 14:20:28;;;;;;;3.83;2.65;;;;;;;;;;4191087;34;20549;-63
2022/04/28 14:22:54;;;;;;;2.53;1.90;;;;;;;;;;4191071;34;20132;-63
2022/04/28 14:25:21;;;;;;;3.40;1.95;;;;;;;;;;4191273;34;20212;-63
2022/04/28 14:27:47;;;;;;;2.60;1.90;;;;;;;;;;4191100;34;20114;-63
2022/04/28 14:30:13;;;;;;;1.95;1.77;;;;;;;;;;4190875;34;20131;-62
2022/04/28 14:32:39;;;;;;;2.05;1.87;;;;;;;;;;4190905;34;20198;-63
2022/04/28 14:35:07;;;;;;;3.85;2.05;;;;;;;;;;4190792;34;20478;-63
2022/04/28 14:37:34;;;;;;;4.15;2.00;;;;;;;;;;4190701;34;20201;-62
2022/04/28 14:40:01;;;;;;;6.40;1.98;;;;;;;;;;4190991;34;20115;-60
2022/04/28 14:42:27;;;;;;;3.47;2.00;;;;;;;;;;4190753;34;20197;-63
2022/04/28 14:44:53;;;;;;;2.75;1.80;;;;;;;;;;4188328;34;20580;-63
2022/04/28 14:47:19;;;;;;;3.20;2.00;;;;;;;;;;4204387;34;20511;-60
2022/04/28 14:52:29;;;;;;;6.47;1.95;;;;;;;;;;4190532;34;20555;-62
2022/04/28 14:54:57;;;;;;;2.75;2.10;;;;;;;;;;4204189;34;20560;-61
2022/04/28 14:57:24;;;;;;;3.17;1.92;;;;;;;;;;4204223;34;20122;-61
2022/04/28 14:59:50;;;;;;;3.30;2.37;;;;;;;;;;4204152;34;20117;-60
2022/04/28 15:02:16;;;;;;;3.15;2.78;;;;;;;;;;4189673;34;20102;-61
2022/04/28 15:04:42;;;;;;;4.78;2.25;;;;;;;;;;4173489;34;20519;-64
2022/04/28 15:07:08;;;;;;;7.20;4.78;;;;;;;;;;4202942;34;20106;-62
2022/04/28 15:09:34;;;;;;;4.37;3.65;;;;;;;;;;4179578;34;20118;-66
2022/04/28 15:12:01;;;;;;;4.28;3.87;;;;;;;;;;4190829;34;20120;-64
2022/04/28 15:14:27;;;;;;;4.57;3.10;;;;;;;;;;4203884;34;20105;-62
2022/04/28 15:16:53;;;;;;;3.72;2.65;;;;;;;;;;4203794;34;20526;-63
2022/04/28 15:19:19;;;;;;;2.53;2.08;;;;;;;;;;4191143;34;20204;-63
2022/04/28 15:21:45;;;;;;;4.90;2.10;;;;;;;;;;4203396;34;20094;-63
2022/04/28 15:24:11;;;;;;;2.90;2.37;;;;;;;;;;4203798;34;20106;-64
2022/04/28 15:26:37;;;;;;;2.50;2.00;;;;;;;;;;4203853;34;20094;-64
2022/04/28 15:29:03;;;;;;;3.85;2.10;;;;;;;;;;4204010;34;20123;-65
2022/04/28 15:31:36;;;;;;;2.22;1.85;;;;;;;;;;4203648;34;20115;-65
2022/04/28 15:34:04;;;;;;;2.60;2.10;;;;;;;;;;4203198;34;20141;-61
2022/04/28 15:36:31;;;;;;;5.47;1.92;;;;;;;;;;4179798;34;20093;-64
2022/04/28 15:38:57;;;;;;;3.58;1.92;;;;;;;;;;4190830;34;20121;-63
2022/04/28 15:41:23;;;;;;;2.42;2.10;;;;;;;;;;4203951;34;20105;-62
2022/04/28 15:43:50;;;;;;;5.85;2.55;;;;;;;;;;4179229;34;20118;-64
2022/04/28 15:46:16;;;;;;;3.75;2.80;;;;;;;;;;4190388;34;20133;-64
2022/04/28 15:48:42;;;;;;;3.50;3.00;;;;;;;;;;4190835;34;20202;-63
2022/04/28 15:51:08;;;;;;;5.07;3.50;;;;;;;;;;4190586;34;20125;-65
2022/04/28 15:53:35;;;;;;;3.25;2.80;;;;;;;;;;4202564;34;20109;-62
2022/04/28 15:56:02;;;;;;;6.47;3.25;;;;;;;;;;4203396;34;20471;-63
2022/04/28 15:58:28;;;;;;;6.87;4.20;;;;;;;;;;4203316;34;20106;-62